createdAt,value
2018-04-12T00:00:59.685Z,13.70
2018-04-12T00:03:27.153Z,13.70
2018-04-12T00:05:54.604Z,13.60
2018-04-12T00:08:22.069Z,13.60
2018-04-12T00:10:49.528Z,13.60
2018-04-12T00:13:16.989Z,13.60
2018-04-12T00:15:44.449Z,13.60
2018-04-12T00:18:11.912Z,13.50
2018-04-12T00:20:39.373Z,13.50
2018-04-12T00:23:06.849Z,13.50
2018-04-12T00:25:34.329Z,13.50
2018-04-12T00:28:01.814Z,13.50
2018-04-12T00:30:29.265Z,13.50
2018-04-12T00:32:56.728Z,13.50
2018-04-12T00:35:24.185Z,13.50
2018-04-12T00:37:51.677Z,13.50
2018-04-12T00:40:19.147Z,13.50
2018-04-12T00:42:46.606Z,13.50
2018-04-12T00:45:14.069Z,13.50
2018-04-12T00:47:41.525Z,13.50
2018-04-12T00:50:09.002Z,13.40
2018-04-12T00:52:36.472Z,13.50
2018-04-12T00:55:03.950Z,13.50
2018-04-12T00:57:32.176Z,13.50
2018-04-12T00:59:59.633Z,13.50
2018-04-12T01:02:27.110Z,13.50
2018-04-12T01:04:54.561Z,13.50
2018-04-12T01:07:22.102Z,13.50
2018-04-12T01:09:49.566Z,13.50
2018-04-12T01:12:17.033Z,13.50
2018-04-12T01:14:44.494Z,13.50
2018-04-12T01:17:11.961Z,13.50
2018-04-12T01:19:39.416Z,13.40
2018-04-12T01:22:06.889Z,13.40
2018-04-12T01:24:34.348Z,13.40
2018-04-12T01:27:01.818Z,13.40
2018-04-12T01:29:30.038Z,13.40
2018-04-12T01:31:57.500Z,13.40
2018-04-12T01:34:24.984Z,13.40
2018-04-12T01:36:52.441Z,13.30
2018-04-12T01:39:19.897Z,13.40
2018-04-12T01:41:47.349Z,13.30
2018-04-12T01:44:14.825Z,13.20
2018-04-12T01:46:42.288Z,13.20
2018-04-12T01:49:09.752Z,13.20
2018-04-12T01:51:37.981Z,13.20
2018-04-12T01:54:05.460Z,13.10
2018-04-12T01:56:32.917Z,13.20
2018-04-12T01:59:00.388Z,13.20
2018-04-12T02:01:27.849Z,13.10
2018-04-12T02:03:56.092Z,13.10
2018-04-12T02:06:23.549Z,13.10
2018-04-12T02:08:51.027Z,13.00
2018-04-12T02:11:18.477Z,13.00
2018-04-12T02:13:45.937Z,13.00
2018-04-12T02:16:13.408Z,13.00
2018-04-12T02:18:41.638Z,13.10
2018-04-12T02:21:09.886Z,13.10
2018-04-12T02:23:37.333Z,13.10
2018-04-12T02:26:04.801Z,13.10
2018-04-12T02:28:32.263Z,13.10
2018-04-12T02:30:59.729Z,13.10
2018-04-12T02:33:27.188Z,13.00
2018-04-12T02:35:54.675Z,13.10
2018-04-12T02:38:22.141Z,13.10
2018-04-12T02:40:49.601Z,13.10
2018-04-12T02:43:17.832Z,13.20
2018-04-12T02:45:45.293Z,13.10
2018-04-12T02:48:12.766Z,13.20
2018-04-12T02:50:40.267Z,13.20
2018-04-12T02:53:07.709Z,13.20
2018-04-12T02:55:35.929Z,13.30
2018-04-12T02:58:03.397Z,13.20
2018-04-12T03:00:30.855Z,13.30
2018-04-12T03:02:58.321Z,13.20
2018-04-12T03:05:25.769Z,13.20
2018-04-12T03:07:53.243Z,13.20
2018-04-12T03:10:21.225Z,13.20
2018-04-12T03:12:48.689Z,13.20
2018-04-12T03:15:16.180Z,13.20
2018-04-12T03:17:43.649Z,13.20
2018-04-12T03:20:11.105Z,13.20
2018-04-12T03:22:38.597Z,13.20
2018-04-12T03:25:06.065Z,13.20
2018-04-12T03:27:33.511Z,13.20
2018-04-12T03:30:00.984Z,13.20
2018-04-12T03:32:28.437Z,13.20
2018-04-12T03:34:55.916Z,13.20
2018-04-12T03:37:24.141Z,13.20
2018-04-12T03:39:51.617Z,13.20
2018-04-12T03:42:19.089Z,13.20
2018-04-12T03:44:46.552Z,13.20
2018-04-12T03:47:14.008Z,13.10
2018-04-12T03:49:41.537Z,13.20
2018-04-12T03:52:08.936Z,13.10
2018-04-12T03:54:36.429Z,13.10
2018-04-12T03:57:03.886Z,13.00
2018-04-12T03:59:31.341Z,13.00
2018-04-12T04:01:58.806Z,13.00
2018-04-12T04:04:26.270Z,13.00
2018-04-12T04:06:53.744Z,13.00
2018-04-12T04:09:21.230Z,13.10
2018-04-12T04:11:48.713Z,13.00
2018-04-12T04:14:27.996Z,13.10
2018-04-12T04:17:07.334Z,13.10
2018-04-12T04:19:46.555Z,13.00
2018-04-12T04:22:14.029Z,13.10
2018-04-12T04:24:41.480Z,13.10
2018-04-12T04:27:08.952Z,13.10
2018-04-12T04:29:36.401Z,13.10
2018-04-12T04:32:03.889Z,13.20
2018-04-12T04:34:32.181Z,13.20
2018-04-12T04:36:59.636Z,13.20
2018-04-12T04:39:27.136Z,13.20
2018-04-12T04:41:54.593Z,13.20
2018-04-12T04:44:22.058Z,13.20
2018-04-12T04:46:49.521Z,13.20
2018-04-12T04:49:17.015Z,13.20
2018-04-12T04:51:44.467Z,13.20
2018-04-12T04:54:11.933Z,13.20
2018-04-12T04:56:39.396Z,13.20
2018-04-12T04:59:06.865Z,13.20
2018-04-12T05:01:35.105Z,13.20
2018-04-12T05:04:02.579Z,13.30
2018-04-12T05:06:30.033Z,13.30
2018-04-12T05:08:57.501Z,13.30
2018-04-12T05:11:24.973Z,13.30
2018-04-12T05:13:52.433Z,13.30
2018-04-12T05:16:19.901Z,13.30
2018-04-12T05:18:47.357Z,13.30
2018-04-12T05:21:14.827Z,13.30
2018-04-12T05:23:42.288Z,13.30
2018-04-12T05:26:09.752Z,13.30
2018-04-12T05:28:37.213Z,13.30
2018-04-12T05:31:04.685Z,13.30
2018-04-12T05:33:32.137Z,13.30
2018-04-12T05:35:59.621Z,13.20
2018-04-12T05:38:27.077Z,13.20
2018-04-12T05:40:54.755Z,13.30
2018-04-12T05:43:23.153Z,13.30
2018-04-12T05:45:50.618Z,13.40
2018-04-12T05:48:18.084Z,13.40
2018-04-12T05:50:45.542Z,13.40
2018-04-12T05:53:13.001Z,13.40
2018-04-12T05:55:41.220Z,13.40
2018-04-12T05:58:09.376Z,13.40
2018-04-12T06:00:37.008Z,13.40
2018-04-12T06:03:04.468Z,13.50
2018-04-12T06:05:32.137Z,13.50
2018-04-12T06:07:59.616Z,13.60
2018-04-12T06:10:27.125Z,13.60
2018-04-12T06:12:54.876Z,13.70
2018-04-12T06:15:22.541Z,13.80
2018-04-12T06:17:50.033Z,13.90
2018-04-12T06:20:17.493Z,14.10
2018-04-12T06:22:44.949Z,14.20
2018-04-12T06:25:12.477Z,14.20
2018-04-12T06:27:40.042Z,14.40
2018-04-12T06:30:07.505Z,14.50
2018-04-12T06:32:35.744Z,14.70
2018-04-12T06:35:03.212Z,14.80
2018-04-12T06:54:47.952Z,14.80
2018-04-12T06:57:15.477Z,14.70
2018-04-12T06:59:43.013Z,14.80
2018-04-12T07:02:10.783Z,14.80
2018-04-12T07:04:38.396Z,14.90
2018-04-12T07:07:05.929Z,15.00
2018-04-12T07:09:33.453Z,15.10
2018-04-12T07:12:01.072Z,15.20
2018-04-12T07:14:28.601Z,15.30
2018-04-12T07:16:56.057Z,15.40
2018-04-12T07:19:23.529Z,15.50
2018-04-12T07:21:51.045Z,15.50
2018-04-12T07:24:18.509Z,15.60
2018-04-12T07:26:45.965Z,15.60
2018-04-12T07:29:13.427Z,15.60
2018-04-12T07:31:40.878Z,15.60
2018-04-12T07:34:08.547Z,15.50
2018-04-12T07:36:36.048Z,15.60
2018-04-12T07:39:03.541Z,15.70
2018-04-12T07:41:31.190Z,15.80
2018-04-12T07:43:58.676Z,15.90
2018-04-12T07:46:26.151Z,16.00
2018-04-12T07:48:53.608Z,16.10
2018-04-12T07:51:21.078Z,16.20
2018-04-12T07:53:48.533Z,16.20
2018-04-12T07:56:16.002Z,16.30
2018-04-12T07:58:44.385Z,16.50
2018-04-12T08:01:12.046Z,16.40
2018-04-12T08:03:39.681Z,16.50
2018-04-12T08:06:07.330Z,16.60
2018-04-12T08:08:34.779Z,16.70
2018-04-12T08:11:02.257Z,16.70
2018-04-12T08:13:29.705Z,16.80
2018-04-12T08:15:57.196Z,16.80
2018-04-12T08:18:24.653Z,16.90
2018-04-12T08:20:52.160Z,17.00
2018-04-12T08:23:19.771Z,17.00
2018-04-12T08:25:47.281Z,17.10
2018-04-12T08:28:15.753Z,17.20
2018-04-12T08:30:43.200Z,17.20
2018-04-12T08:33:10.675Z,17.30
2018-04-12T08:35:38.427Z,17.40
2018-04-12T08:38:05.884Z,17.50
2018-04-12T08:40:33.340Z,17.50
2018-04-12T08:43:00.812Z,17.60
2018-04-12T08:45:28.293Z,17.60
2018-04-12T08:47:55.766Z,17.70
2018-04-12T08:50:23.486Z,17.70
2018-04-12T08:52:51.093Z,17.80
2018-04-12T08:55:18.581Z,17.80
2018-04-12T08:57:46.034Z,17.90
2018-04-12T09:00:13.617Z,17.90
2018-04-12T09:02:41.388Z,18.10
2018-04-12T09:05:09.141Z,18.10
2018-04-12T09:07:36.979Z,18.20
2018-04-12T09:10:04.590Z,18.20
2018-04-12T09:12:32.046Z,18.30
2018-04-12T09:14:59.514Z,18.40
2018-04-12T09:17:26.961Z,18.40
2018-04-12T09:19:54.495Z,18.50
2018-04-12T09:22:21.957Z,18.50
2018-04-12T09:24:49.875Z,18.60
2018-04-12T09:27:17.405Z,18.60
2018-04-12T09:29:44.922Z,18.70
2018-04-12T09:32:12.398Z,18.80
2018-04-12T09:34:40.163Z,18.80
2018-04-12T09:37:07.797Z,18.90
2018-04-12T09:39:35.266Z,19.00
2018-04-12T09:42:02.997Z,19.00
2018-04-12T09:44:30.454Z,19.20
2018-04-12T09:46:57.964Z,19.20
2018-04-12T09:49:25.481Z,19.30
2018-04-12T09:51:52.905Z,19.30
2018-04-12T09:54:20.413Z,19.40
2018-04-12T09:56:47.878Z,19.40
2018-04-12T09:59:15.345Z,19.50
2018-04-12T10:01:48.791Z,19.60
2018-04-12T10:04:16.255Z,19.70
2018-04-12T10:06:43.789Z,19.90
2018-04-12T10:09:14.156Z,20.10
2018-04-12T10:11:41.642Z,20.10
2018-04-12T10:14:09.110Z,20.20
2018-04-12T10:16:37.390Z,20.20
2018-04-12T10:19:04.821Z,20.20
2018-04-12T10:21:32.273Z,20.20
2018-04-12T10:24:00.037Z,20.20
2018-04-12T10:26:27.801Z,20.20
2018-04-12T10:28:55.307Z,20.10
2018-04-12T10:31:22.843Z,20.10
2018-04-12T10:33:50.258Z,20.10
2018-04-12T10:36:17.716Z,20.20
2018-04-12T10:38:45.177Z,20.20
2018-04-12T10:41:12.651Z,20.10
2018-04-12T10:43:40.096Z,20.10
2018-04-12T10:46:07.569Z,20.10
2018-04-12T10:48:35.221Z,20.10
2018-04-12T10:51:02.695Z,20.20
2018-04-12T10:53:30.313Z,20.30
2018-04-12T10:55:57.827Z,20.30
2018-04-12T10:58:25.281Z,20.30
2018-04-12T11:00:53.634Z,20.30
2018-04-12T11:03:21.169Z,20.30
2018-04-12T11:05:48.843Z,20.30
2018-04-12T11:08:16.326Z,20.40
2018-04-12T11:10:43.879Z,20.40
2018-04-12T11:13:12.109Z,20.40
2018-04-12T11:15:39.731Z,20.30
2018-04-12T11:18:07.185Z,20.40
2018-04-12T11:20:34.949Z,20.40
2018-04-12T11:23:02.676Z,20.40
2018-04-12T11:25:30.190Z,20.50
2018-04-12T11:27:57.904Z,20.50
2018-04-12T11:30:25.550Z,20.60
2018-04-12T11:32:53.124Z,20.70
2018-04-12T11:35:20.759Z,20.90
2018-04-12T11:37:48.275Z,21.00
2018-04-12T11:40:15.804Z,21.20
2018-04-12T11:42:43.564Z,21.20
2018-04-12T11:45:11.324Z,21.30
2018-04-12T11:47:39.089Z,21.40
2018-04-12T11:50:06.553Z,21.50
2018-04-12T11:52:34.006Z,21.60
2018-04-12T11:55:01.736Z,21.60
2018-04-12T11:57:29.189Z,21.60
2018-04-12T11:59:56.684Z,21.70
2018-04-12T12:02:24.160Z,21.70
2018-04-12T12:04:52.436Z,21.80
2018-04-12T12:07:19.897Z,21.70
2018-04-12T12:09:47.433Z,21.80
2018-04-12T12:12:15.081Z,21.90
2018-04-12T12:14:42.585Z,21.90
2018-04-12T12:17:10.050Z,21.90
2018-04-12T12:19:37.505Z,22.00
2018-04-12T12:22:04.965Z,22.00
2018-04-12T12:24:32.489Z,22.00
2018-04-12T12:27:00.781Z,22.10
2018-04-12T12:29:28.229Z,22.10
2018-04-12T12:31:56.481Z,22.40
2018-04-12T12:34:24.041Z,22.40
2018-04-12T12:36:51.541Z,22.50
2018-04-12T12:39:18.999Z,22.60
2018-04-12T12:41:46.537Z,22.60
2018-04-12T12:44:14.166Z,22.60
2018-04-12T12:46:41.645Z,22.50
2018-04-12T12:49:09.105Z,22.50
2018-04-12T12:51:36.554Z,22.50
2018-04-12T12:54:04.092Z,22.50
2018-04-12T12:56:31.565Z,22.40
2018-04-12T12:58:59.492Z,22.40
2018-04-12T13:01:27.096Z,22.40
2018-04-12T13:03:54.575Z,22.50
2018-04-12T13:06:22.217Z,22.70
2018-04-12T13:08:49.681Z,22.80
2018-04-12T13:11:17.136Z,22.80
2018-04-12T13:13:44.608Z,22.90
2018-04-12T13:16:12.064Z,23.00
2018-04-12T13:18:39.605Z,23.00
2018-04-12T13:21:07.374Z,23.00
2018-04-12T13:23:34.824Z,22.90
2018-04-12T13:26:04.129Z,23.00
2018-04-12T13:28:31.604Z,23.00
2018-04-12T13:30:59.345Z,23.00
2018-04-12T13:33:26.802Z,23.10
2018-04-12T13:35:54.269Z,23.10
2018-04-12T13:38:23.239Z,22.80
2018-04-12T13:40:50.791Z,22.90
2018-04-12T13:43:18.475Z,22.80
2018-04-12T13:45:45.945Z,22.70
2018-04-12T13:48:13.566Z,22.60
2018-04-12T13:50:41.069Z,22.50
2018-04-12T13:53:08.616Z,22.50
2018-04-12T13:55:36.257Z,22.40
2018-04-12T13:58:03.719Z,22.30
2018-04-12T14:00:31.206Z,22.30
2018-04-12T14:02:58.657Z,22.30
2018-04-12T14:05:26.104Z,22.30
2018-04-12T14:07:53.605Z,22.30
2018-04-12T14:10:21.061Z,22.30
2018-04-12T14:12:48.557Z,22.20
2018-04-12T14:15:16.321Z,22.20
2018-04-12T14:17:43.786Z,22.10
2018-04-12T14:20:11.243Z,22.10
2018-04-12T14:22:38.881Z,22.10
2018-04-12T14:25:06.374Z,22.00
2018-04-12T14:27:33.837Z,22.00
2018-04-12T14:30:01.296Z,22.00
2018-04-12T14:32:28.752Z,22.00
2018-04-12T14:34:56.969Z,21.90
2018-04-12T14:37:24.440Z,21.90
2018-04-12T14:39:51.905Z,21.90
2018-04-12T14:42:19.576Z,21.90
2018-04-12T14:44:47.337Z,21.80
2018-04-12T14:47:14.810Z,21.80
2018-04-12T14:49:43.789Z,22.40
2018-04-12T14:52:11.256Z,22.40
2018-04-12T14:54:38.705Z,22.90
2018-04-12T14:57:06.185Z,23.20
2018-04-12T14:59:33.650Z,23.20
2018-04-12T15:02:01.160Z,23.00
2018-04-12T15:04:28.646Z,22.90
2018-04-12T15:06:56.874Z,23.20
2018-04-12T15:09:24.372Z,23.10
2018-04-12T15:11:51.884Z,23.30
2018-04-12T15:14:19.346Z,23.80
2018-04-12T15:16:46.806Z,24.20
2018-04-12T15:19:14.306Z,24.40
2018-04-12T15:21:41.783Z,24.50
2018-04-12T15:24:10.075Z,24.40
2018-04-12T15:26:37.505Z,24.30
2018-04-12T15:29:04.984Z,24.30
2018-04-12T15:31:32.458Z,24.20
2018-04-12T15:33:59.959Z,24.10
2018-04-12T15:36:27.492Z,24.00
2018-04-12T15:38:54.971Z,23.90
2018-04-12T15:41:22.463Z,23.80
2018-04-12T15:43:50.705Z,23.70
2018-04-12T15:46:18.177Z,23.70
2018-04-12T15:48:45.654Z,23.60
2018-04-12T15:51:13.896Z,23.40
2018-04-12T15:53:41.362Z,23.40
2018-04-12T15:56:08.835Z,23.40
2018-04-12T15:58:36.320Z,23.60
2018-04-12T16:01:03.809Z,23.70
2018-04-12T16:03:31.265Z,23.80
2018-04-12T16:05:58.748Z,23.80
2018-04-12T16:08:26.202Z,23.80
2018-04-12T16:10:53.691Z,23.70
2018-04-12T16:13:21.909Z,24.10
2018-04-12T16:15:49.470Z,24.10
2018-04-12T16:18:17.179Z,24.60
2018-04-12T16:20:44.770Z,25.10
2018-04-12T16:23:12.439Z,25.20
2018-04-12T16:25:39.958Z,25.00
2018-04-12T16:28:08.285Z,24.40
2018-04-12T16:30:35.837Z,24.40
2018-04-12T16:33:03.339Z,24.20
2018-04-12T16:35:31.015Z,23.90
2018-04-12T16:37:58.562Z,23.70
2018-04-12T16:40:26.194Z,23.50
2018-04-12T16:42:53.755Z,23.40
2018-04-12T16:45:21.360Z,23.20
2018-04-12T16:47:48.963Z,23.10
2018-04-12T16:50:16.477Z,23.10
2018-04-12T16:52:44.818Z,23.00
2018-04-12T16:55:12.305Z,22.90
2018-04-12T16:57:40.004Z,22.90
2018-04-12T17:00:07.544Z,22.90
2018-04-12T17:02:35.089Z,22.80
2018-04-12T17:05:03.623Z,22.70
2018-04-12T17:07:31.326Z,22.70
2018-04-12T17:09:59.684Z,22.50
2018-04-12T17:12:27.213Z,22.50
2018-04-12T17:14:54.746Z,22.30
2018-04-12T17:17:22.236Z,22.20
2018-04-12T17:19:49.719Z,22.10
2018-04-12T17:22:17.405Z,22.00
2018-04-12T17:24:44.923Z,21.90
2018-04-12T17:27:12.425Z,21.80
2018-04-12T17:29:40.003Z,21.70
2018-04-12T17:32:07.598Z,21.60
2018-04-12T17:34:35.883Z,21.50
2018-04-12T17:37:03.435Z,21.50
2018-04-12T17:39:30.985Z,21.40
2018-04-12T17:41:58.457Z,21.30
2018-04-12T17:44:26.067Z,21.30
2018-04-12T17:46:53.574Z,21.20
2018-04-12T17:49:21.262Z,21.10
2018-04-12T17:51:48.850Z,20.90
2018-04-12T17:54:16.364Z,20.70
2018-04-12T17:56:43.899Z,20.40
2018-04-12T17:59:11.523Z,20.00
2018-04-12T18:01:39.208Z,19.80
2018-04-12T18:04:06.805Z,19.60
2018-04-12T18:06:34.277Z,19.40
2018-04-12T18:09:01.762Z,19.20
2018-04-12T18:11:30.056Z,18.90
2018-04-12T18:13:57.592Z,18.90
2018-04-12T18:16:25.890Z,18.60
2018-04-12T18:18:53.477Z,18.60
2018-04-12T18:21:21.588Z,18.50
2018-04-12T18:23:49.193Z,18.40
2018-04-12T18:26:16.838Z,18.20
2018-04-12T18:28:44.296Z,18.10
2018-04-12T18:31:11.770Z,18.00
2018-04-12T18:33:39.417Z,17.90
2018-04-12T18:36:07.006Z,17.80
2018-04-12T18:38:34.529Z,17.80
2018-04-12T18:41:02.055Z,17.70
2018-04-12T18:43:29.552Z,17.60
2018-04-12T18:45:57.050Z,17.50
2018-04-12T18:48:24.528Z,17.50
2018-04-12T18:50:52.688Z,17.40
2018-04-12T18:53:20.269Z,17.40
2018-04-12T18:55:47.851Z,17.40
2018-04-12T18:58:15.358Z,17.30
2018-04-12T19:00:43.041Z,17.30
2018-04-12T19:03:10.626Z,17.20
2018-04-12T19:05:38.910Z,17.10
2018-04-12T19:08:06.499Z,17.10
2018-04-12T19:10:33.940Z,17.10
2018-04-12T19:13:01.475Z,17.00
2018-04-12T19:15:29.021Z,17.00
2018-04-12T19:17:56.501Z,16.90
2018-04-12T19:20:23.981Z,16.90
2018-04-12T19:22:51.485Z,16.80
2018-04-12T19:25:18.950Z,16.70
2018-04-12T19:27:46.421Z,16.70
2018-04-12T19:30:13.910Z,16.60
2018-04-12T19:32:41.395Z,16.50
2018-04-12T19:35:08.864Z,16.40
2018-04-12T19:37:36.355Z,16.40
2018-04-12T19:40:04.613Z,16.40
2018-04-12T19:42:32.100Z,16.40
2018-04-12T19:44:59.568Z,16.40
2018-04-12T19:47:27.030Z,16.40
2018-04-12T19:49:54.506Z,16.30
2018-04-12T19:52:21.989Z,16.20
2018-04-12T19:54:49.464Z,16.20
2018-04-12T19:57:17.689Z,16.10
2018-04-12T19:59:45.174Z,16.10
2018-04-12T20:02:12.666Z,16.00
2018-04-12T20:04:40.402Z,16.00
2018-04-12T20:07:07.865Z,16.00
2018-04-12T20:09:35.354Z,16.00
2018-04-12T20:12:02.818Z,16.00
2018-04-12T20:14:30.290Z,16.00
2018-04-12T20:16:57.925Z,16.00
2018-04-12T20:19:25.403Z,16.00
2018-04-12T20:21:52.856Z,16.00
2018-04-12T20:24:20.306Z,16.00
2018-04-12T20:26:47.783Z,16.10
2018-04-12T20:29:15.269Z,16.00
2018-04-12T20:31:42.737Z,16.00
2018-04-12T20:34:10.206Z,15.90
2018-04-12T20:36:37.878Z,15.80
2018-04-12T20:39:05.380Z,15.80
2018-04-12T20:41:32.852Z,15.80
2018-04-12T20:44:00.340Z,15.70
2018-04-12T20:46:27.809Z,15.60
2018-04-12T20:48:55.292Z,15.60
2018-04-12T20:51:22.998Z,15.50
2018-04-12T20:53:50.462Z,15.50
2018-04-12T20:56:17.917Z,15.40
2018-04-12T20:58:45.674Z,15.40
2018-04-12T21:01:13.140Z,15.30
2018-04-12T21:03:40.604Z,15.30
2018-04-12T21:06:08.133Z,15.30
2018-04-12T21:08:35.758Z,15.30
2018-04-12T21:11:04.161Z,15.20
2018-04-12T21:13:31.657Z,15.20
2018-04-12T21:15:59.127Z,15.10
2018-04-12T21:18:26.634Z,15.30
2018-04-12T21:20:54.098Z,15.20
2018-04-12T21:23:21.549Z,15.10
2018-04-12T21:25:49.118Z,15.10
2018-04-12T21:28:16.565Z,15.00
2018-04-12T21:30:44.154Z,14.90
2018-04-12T21:33:11.610Z,14.90
2018-04-12T21:35:39.321Z,14.90
2018-04-12T21:38:06.798Z,14.80
2018-04-12T21:40:34.270Z,14.70
2018-04-12T21:43:01.783Z,14.70
2018-04-12T21:45:29.301Z,14.60
2018-04-12T21:47:56.762Z,14.60
2018-04-12T21:50:24.246Z,14.50
2018-04-12T21:52:52.481Z,14.40
2018-04-12T21:55:19.958Z,14.40
2018-04-12T21:57:47.412Z,14.40
2018-04-12T22:00:14.918Z,14.30
2018-04-12T22:02:42.628Z,14.30
2018-04-12T22:05:10.090Z,14.30
2018-04-12T22:07:37.545Z,14.20
2018-04-12T22:10:05.205Z,14.20
2018-04-12T22:12:32.661Z,14.20
2018-04-12T22:15:00.213Z,14.30
2018-04-12T22:17:27.669Z,14.30
2018-04-12T22:19:55.963Z,14.30
2018-04-12T22:22:23.429Z,14.30
2018-04-12T22:24:50.872Z,14.20
2018-04-12T22:27:18.332Z,14.10
2018-04-12T22:29:45.780Z,14.10
2018-04-12T22:32:13.245Z,14.00
2018-04-12T22:34:40.704Z,14.00
2018-04-12T22:37:08.241Z,14.00
2018-04-12T22:39:35.715Z,13.90
2018-04-12T22:42:03.380Z,13.90
2018-04-12T22:44:30.920Z,13.80
2018-04-12T22:46:58.593Z,13.80
2018-04-12T22:49:26.109Z,13.70
2018-04-12T22:51:53.604Z,13.70
2018-04-12T22:54:21.406Z,13.70
2018-04-12T22:56:49.036Z,13.70
2018-04-12T22:59:16.492Z,13.70
2018-04-12T23:01:43.960Z,13.70
2018-04-12T23:04:11.406Z,13.70
2018-04-12T23:06:38.876Z,13.60
2018-04-12T23:09:06.413Z,13.70
2018-04-12T23:11:33.985Z,13.60
2018-04-12T23:14:01.546Z,13.60
2018-04-12T23:16:30.009Z,13.50
2018-04-12T23:18:57.772Z,13.60
2018-04-12T23:21:25.626Z,13.50
2018-04-12T23:23:53.159Z,13.50
2018-04-12T23:26:20.573Z,13.50
2018-04-12T23:28:48.793Z,13.40
2018-04-12T23:31:16.264Z,13.40
2018-04-12T23:33:43.930Z,13.40
2018-04-12T23:36:11.505Z,13.40
2018-04-12T23:38:39.140Z,13.40
2018-04-12T23:41:06.592Z,13.40
2018-04-12T23:43:34.096Z,13.40
2018-04-12T23:46:02.473Z,13.40
2018-04-12T23:48:30.018Z,13.40
2018-04-12T23:50:57.665Z,13.40
2018-04-12T23:53:25.122Z,13.30
2018-04-12T23:55:52.604Z,13.30
2018-04-12T23:58:20.070Z,13.20
